Time;durP1;ratioP1;P1;durP2;ratioP2;P2;SDS_P1;SDS_P2;PMS_P1;PMS_P2;Temp;Humidity;BMP_temperature;BMP_pressure;BME280_temperature;BME280_humidity;BME280_pressure;Samples;Min_cycle;Max_cycle;Signal;HPM_P1;HPM_P2
2022/05/14 00:01:18;;;;;;;6.25;2.35;;;;;;;;;;5034892;28;20021;-69
2022/05/14 00:03:44;;;;;;;6.78;2.85;;;;;;;;;;5034945;28;20018;-69
2022/05/14 00:06:13;;;;;;;3.67;2.10;;;;;;;;;;5034656;28;20041;-70
2022/05/14 00:08:39;;;;;;;4.32;2.53;;;;;;;;;;5034822;28;20420;-69
2022/05/14 00:13:51;;;;;;;10.02;3.30;;;;;;;;;;5034620;28;20507;-69
2022/05/14 00:16:18;;;;;;;5.32;2.65;;;;;;;;;;5034446;28;20074;-69
2022/05/14 00:18:44;;;;;;;7.60;2.63;;;;;;;;;;5034273;28;20080;-69
2022/05/14 00:21:11;;;;;;;6.80;2.30;;;;;;;;;;5034462;28;20506;-69
2022/05/14 00:23:37;;;;;;;6.00;2.08;;;;;;;;;;5034447;28;20021;-69
2022/05/14 00:26:03;;;;;;;184.07;106.68;;;;;;;;;;5056339;22;20227;-70
2022/05/14 00:28:29;;;;;;;23.42;10.40;;;;;;;;;;5033691;28;20037;-70
2022/05/14 00:30:55;;;;;;;13.43;5.75;;;;;;;;;;5034275;28;20121;-70
2022/05/14 00:33:22;;;;;;;14.70;6.03;;;;;;;;;;5034142;28;20029;-70
2022/05/14 00:35:48;;;;;;;37.70;17.33;;;;;;;;;;5034258;28;20084;-70
2022/05/14 00:38:14;;;;;;;18.25;7.35;;;;;;;;;;5033955;28;20073;-71
2022/05/14 00:40:42;;;;;;;6.80;3.75;;;;;;;;;;5034426;28;20035;-71
2022/05/14 00:43:09;;;;;;;10.75;4.22;;;;;;;;;;5034172;28;20391;-71
2022/05/14 00:45:36;;;;;;;10.45;4.57;;;;;;;;;;5015203;28;20112;-71
2022/05/14 00:48:02;;;;;;;5.65;3.40;;;;;;;;;;5033979;28;20390;-71
2022/05/14 00:50:39;;;;;;;8.30;3.78;;;;;;;;;;5034073;28;20502;-72
2022/05/14 00:53:15;;;;;;;7.50;2.97;;;;;;;;;;5016644;28;20038;-71
2022/05/14 00:55:42;;;;;;;6.85;2.85;;;;;;;;;;5016303;28;20064;-71
2022/05/14 00:58:09;;;;;;;4.70;2.60;;;;;;;;;;5016894;28;20032;-71
2022/05/14 01:00:36;;;;;;;10.88;2.75;;;;;;;;;;5035433;28;20471;-71
2022/05/14 01:03:02;;;;;;;6.10;2.72;;;;;;;;;;5017030;28;20029;-72
2022/05/14 01:05:28;;;;;;;7.15;3.15;;;;;;;;;;5033912;28;20045;-71
2022/05/14 01:07:55;;;;;;;6.13;2.80;;;;;;;;;;5033537;28;20460;-71
2022/05/14 01:10:22;;;;;;;5.80;2.63;;;;;;;;;;5033718;28;20033;-70
2022/05/14 01:12:51;;;;;;;4.82;3.05;;;;;;;;;;5033456;28;20029;-71
2022/05/14 01:15:20;;;;;;;11.13;3.05;;;;;;;;;;5015632;28;20025;-71
2022/05/14 01:17:47;;;;;;;7.50;3.60;;;;;;;;;;5033229;28;20398;-70
2022/05/14 01:20:14;;;;;;;5.63;3.40;;;;;;;;;;5033412;28;20032;-70
2022/05/14 01:23:03;;;;;;;8.23;4.00;;;;;;;;;;5033451;28;20022;-70
2022/05/14 01:28:32;;;;;;;8.13;3.80;;;;;;;;;;5033193;28;20037;-70
2022/05/14 01:31:00;;;;;;;10.20;3.92;;;;;;;;;;5033183;28;20030;-70
2022/05/14 01:33:26;;;;;;;6.30;4.07;;;;;;;;;;5033110;28;20033;-70
2022/05/14 01:35:53;;;;;;;8.15;3.72;;;;;;;;;;5028039;28;20072;-70
2022/05/14 01:38:20;;;;;;;5.80;3.70;;;;;;;;;;5024073;28;20388;-70
2022/05/14 01:40:46;;;;;;;9.90;3.65;;;;;;;;;;5013227;28;20468;-71
2022/05/14 01:43:12;;;;;;;6.18;3.78;;;;;;;;;;5013348;28;20026;-71
2022/05/14 01:45:38;;;;;;;4.95;3.30;;;;;;;;;;5013166;28;20025;-71
2022/05/14 01:48:04;;;;;;;4.78;3.03;;;;;;;;;;4995470;28;20021;-71
2022/05/14 01:50:30;;;;;;;5.90;3.22;;;;;;;;;;5013301;28;20030;-71
2022/05/14 01:52:56;;;;;;;5.85;3.30;;;;;;;;;;5020613;28;20033;-70
2022/05/14 01:55:22;;;;;;;16.35;2.97;;;;;;;;;;5015842;28;20526;-70
2022/05/14 01:57:48;;;;;;;6.30;3.00;;;;;;;;;;5034782;28;20025;-70
2022/05/14 02:00:16;;;;;;;3.67;2.55;;;;;;;;;;5035064;28;20036;-70
2022/05/14 02:02:42;;;;;;;6.95;2.58;;;;;;;;;;5017117;28;20017;-71
2022/05/14 02:05:08;;;;;;;7.15;2.88;;;;;;;;;;5035120;28;20022;-71
2022/05/14 02:07:34;;;;;;;5.78;2.47;;;;;;;;;;5017614;28;20376;-70
2022/05/14 02:10:00;;;;;;;4.47;2.50;;;;;;;;;;5035478;28;20025;-71
2022/05/14 02:12:26;;;;;;;11.13;3.05;;;;;;;;;;5034424;28;20084;-70
2022/05/14 02:14:52;;;;;;;5.45;2.80;;;;;;;;;;5015941;28;20032;-71
2022/05/14 02:17:18;;;;;;;3.97;2.67;;;;;;;;;;5033243;28;20109;-71
2022/05/14 02:19:44;;;;;;;6.13;3.58;;;;;;;;;;5033561;28;20033;-71
2022/05/14 02:22:10;;;;;;;5.05;3.03;;;;;;;;;;5032618;28;20030;-71
2022/05/14 02:24:37;;;;;;;4.57;2.92;;;;;;;;;;5032108;28;20026;-70
2022/05/14 02:27:04;;;;;;;6.22;3.70;;;;;;;;;;5032044;28;20033;-70
2022/05/14 02:29:50;;;;;;;6.28;2.80;;;;;;;;;;5032227;28;20399;-70
2022/05/14 02:32:16;;;;;;;7.93;3.75;;;;;;;;;;5032218;28;20055;-70
2022/05/14 02:34:42;;;;;;;7.72;3.08;;;;;;;;;;5032788;28;20502;-71
2022/05/14 02:37:08;;;;;;;6.55;3.42;;;;;;;;;;5032585;28;20029;-70
2022/05/14 02:39:34;;;;;;;10.48;3.60;;;;;;;;;;5033054;28;20025;-71
2022/05/14 02:42:00;;;;;;;4.45;3.40;;;;;;;;;;5032206;28;20017;-70
2022/05/14 02:44:25;;;;;;;6.72;3.58;;;;;;;;;;5032099;28;20087;-70
2022/05/14 02:46:51;;;;;;;6.78;3.20;;;;;;;;;;5032082;28;20022;-71
2022/05/14 02:49:17;;;;;;;3.35;2.50;;;;;;;;;;5032229;28;20117;-71
2022/05/14 02:51:43;;;;;;;6.95;2.92;;;;;;;;;;5031918;28;20065;-71
2022/05/14 02:54:09;;;;;;;4.72;2.70;;;;;;;;;;5032140;28;20079;-71
2022/05/14 02:56:35;;;;;;;5.90;2.47;;;;;;;;;;5014190;28;20029;-71
2022/05/14 02:59:07;;;;;;;9.45;3.30;;;;;;;;;;5031671;28;20029;-71
2022/05/14 03:01:33;;;;;;;6.65;3.67;;;;;;;;;;5031782;28;20021;-72
2022/05/14 03:04:00;;;;;;;6.70;3.40;;;;;;;;;;5031619;28;20032;-72
2022/05/14 03:06:26;;;;;;;6.20;3.75;;;;;;;;;;5013925;28;20026;-72
2022/05/14 03:08:52;;;;;;;8.55;3.65;;;;;;;;;;5014295;28;20079;-71
2022/05/14 03:11:18;;;;;;;3.80;3.38;;;;;;;;;;5036037;28;20026;-71
2022/05/14 03:13:44;;;;;;;7.32;3.33;;;;;;;;;;5035721;28;20108;-71
2022/05/14 03:16:11;;;;;;;8.23;3.35;;;;;;;;;;5035974;28;20033;-71
2022/05/14 03:18:37;;;;;;;10.07;3.83;;;;;;;;;;5035308;28;20108;-71
2022/05/14 03:21:03;;;;;;;4.88;3.22;;;;;;;;;;5035593;28;20036;-71
2022/05/14 03:23:29;;;;;;;3.75;2.55;;;;;;;;;;5035522;28;20504;-71
2022/05/14 03:25:55;;;;;;;5.25;3.08;;;;;;;;;;5035334;28;20035;-71
2022/05/14 03:28:21;;;;;;;3.40;2.60;;;;;;;;;;5017600;28;20029;-70
2022/05/14 03:30:47;;;;;;;6.22;2.70;;;;;;;;;;5035404;28;20084;-71
2022/05/14 03:33:13;;;;;;;9.88;3.30;;;;;;;;;;5035280;28;20072;-71
2022/05/14 03:35:39;;;;;;;8.20;3.50;;;;;;;;;;5035229;28;20380;-71
2022/05/14 03:38:06;;;;;;;8.30;3.30;;;;;;;;;;5017170;28;20105;-72
2022/05/14 03:40:32;;;;;;;8.93;3.65;;;;;;;;;;5035347;28;20032;-71
2022/05/14 03:42:58;;;;;;;4.85;3.28;;;;;;;;;;5035211;28;20104;-71
2022/05/14 03:45:24;;;;;;;7.82;3.78;;;;;;;;;;5035190;28;20029;-71
2022/05/14 03:47:50;;;;;;;5.63;2.85;;;;;;;;;;5034897;28;20026;-71
2022/05/14 03:50:16;;;;;;;6.50;3.10;;;;;;;;;;5035191;28;20102;-71
2022/05/14 03:52:42;;;;;;;4.47;2.83;;;;;;;;;;5033172;28;20035;-71
2022/05/14 03:55:08;;;;;;;4.75;2.95;;;;;;;;;;4999223;28;20034;-71
2022/05/14 03:57:34;;;;;;;4.47;3.40;;;;;;;;;;5014734;28;20392;-71
2022/05/14 04:00:01;;;;;;;5.13;3.10;;;;;;;;;;5015175;28;20014;-71
2022/05/14 04:02:27;;;;;;;6.00;2.90;;;;;;;;;;5015112;28;20021;-71
2022/05/14 04:04:53;;;;;;;5.68;2.97;;;;;;;;;;5015166;28;20033;-71
2022/05/14 04:07:20;;;;;;;5.85;3.33;;;;;;;;;;5014682;28;20160;-71
2022/05/14 04:09:45;;;;;;;4.22;3.08;;;;;;;;;;5014921;28;20033;-71
2022/05/14 04:12:11;;;;;;;5.15;2.97;;;;;;;;;;5014791;28;20029;-71
2022/05/14 04:14:37;;;;;;;5.20;2.83;;;;;;;;;;5014921;28;20117;-71
2022/05/14 04:17:04;;;;;;;5.25;3.05;;;;;;;;;;5014607;28;20106;-70
2022/05/14 04:19:30;;;;;;;6.30;2.88;;;;;;;;;;5014861;28;20021;-70
2022/05/14 04:21:56;;;;;;;4.95;3.08;;;;;;;;;;4997181;28;20077;-71
2022/05/14 04:24:22;;;;;;;4.25;2.75;;;;;;;;;;4996950;28;20404;-70
2022/05/14 04:26:48;;;;;;;5.20;2.97;;;;;;;;;;5014353;28;20044;-70
2022/05/14 04:29:14;;;;;;;4.50;2.70;;;;;;;;;;4996772;28;20026;-71
2022/05/14 04:31:40;;;;;;;9.50;2.70;;;;;;;;;;5014504;28;20022;-70
2022/05/14 04:34:07;;;;;;;6.20;2.60;;;;;;;;;;5014629;28;20022;-71
2022/05/14 04:36:32;;;;;;;6.70;3.08;;;;;;;;;;4996875;28;20113;-71
2022/05/14 04:38:58;;;;;;;7.30;2.65;;;;;;;;;;5014148;28;20125;-71
2022/05/14 04:41:30;;;;;;;6.47;2.85;;;;;;;;;;5014437;28;20022;-70
2022/05/14 04:43:56;;;;;;;;;;;;;;;;;;5014951;28;20022;-71
2022/05/14 04:46:22;;;;;;;3.92;2.58;;;;;;;;;;5014044;28;19996;-70
2022/05/14 04:48:47;;;;;;;5.20;2.67;;;;;;;;;;5014112;28;20030;-71
2022/05/14 04:51:13;;;;;;;4.75;2.22;;;;;;;;;;5014245;28;20030;-71
2022/05/14 04:53:39;;;;;;;4.07;2.25;;;;;;;;;;5014129;28;20025;-71
2022/05/14 04:56:05;;;;;;;4.95;2.80;;;;;;;;;;5013985;28;20029;-71
2022/05/14 04:58:31;;;;;;;5.10;2.83;;;;;;;;;;4996158;28;20113;-70
2022/05/14 05:00:57;;;;;;;5.45;2.25;;;;;;;;;;5013791;28;20069;-71
2022/05/14 05:03:24;;;;;;;6.43;2.30;;;;;;;;;;5014118;28;20080;-70
2022/05/14 05:05:55;;;;;;;12.43;2.55;;;;;;;;;;5013948;28;20399;-71
2022/05/14 05:08:22;;;;;;;4.07;2.25;;;;;;;;;;5013635;28;20105;-71
2022/05/14 05:10:48;;;;;;;5.80;2.75;;;;;;;;;;5013863;28;20057;-71
2022/05/14 05:13:19;;;;;;;4.47;2.08;;;;;;;;;;5013797;28;20026;-71
2022/05/14 05:15:45;;;;;;;3.00;2.20;;;;;;;;;;4995966;28;20060;-71
2022/05/14 05:18:11;;;;;;;6.85;1.88;;;;;;;;;;5013416;28;20065;-71
2022/05/14 05:20:39;;;;;;;2.30;1.75;;;;;;;;;;4996066;28;20445;-71
2022/05/14 05:23:05;;;;;;;3.95;1.75;;;;;;;;;;5013591;28;20026;-71
2022/05/14 05:25:31;;;;;;;4.13;2.13;;;;;;;;;;5013430;28;20030;-71
2022/05/14 05:27:57;;;;;;;2.85;1.88;;;;;;;;;;4995675;28;20030;-71
2022/05/14 05:30:23;;;;;;;3.90;1.30;;;24.50;34.70;;;;;;5014118;28;20030;-72
2022/05/14 05:32:49;;;;;;;4.65;1.65;;;23.70;35.10;;;;;;5014253;28;20399;-72
2022/05/14 05:35:15;;;;;;;8.10;1.73;;;23.60;35.80;;;;;;5019579;28;20021;-73
2022/05/14 05:37:40;;;;;;;7.57;1.77;;;24.50;34.70;;;;;;5033455;28;20033;-72
2022/05/14 05:40:06;;;;;;;3.38;1.35;;;23.70;35.80;;;;;;5033048;28;20025;-72
2022/05/14 05:42:32;;;;;;;5.47;2.63;;;;;;;;;;5032789;28;20030;-70
2022/05/14 05:44:59;;;;;;;4.65;1.98;;;;;;;;;;5032888;28;20033;-71
2022/05/14 05:47:25;;;;;;;2.47;1.58;;;;;;;;;;5032879;28;20026;-71
2022/05/14 05:49:51;;;;;;;5.05;1.88;;;;;;;;;;5032843;28;20025;-70
2022/05/14 05:52:17;;;;;;;8.02;1.75;;;;;;;;;;5032718;28;20018;-70
2022/05/14 05:57:31;;;;;;;4.43;1.33;;;;;;;;;;5032609;28;20040;-72
2022/05/14 05:59:57;;;;;;;3.78;1.50;;;;;;;;;;5032608;28;20021;-72
2022/05/14 06:02:23;;;;;;;11.80;1.85;;;;;;;;;;5032606;28;20025;-72
2022/05/14 06:04:49;;;;;;;4.97;1.50;;;;;;;;;;5032608;28;20084;-72
2022/05/14 06:07:15;;;;;;;4.05;1.63;;;;;;;;;;5032335;28;20033;-72
2022/05/14 06:09:41;;;;;;;4.20;1.30;;;;;;;;;;5014712;28;20021;-72
2022/05/14 06:12:07;;;;;;;5.55;1.80;;;;;;;;;;5032430;28;20510;-72
2022/05/14 06:14:33;;;;;;;3.40;1.42;;;;;;;;;;5032600;28;20033;-71
2022/05/14 06:16:59;;;;;;;4.88;1.40;;;;;;;;;;5032205;28;20033;-70
2022/05/14 06:19:25;;;;;;;4.63;1.95;;;;;;;;;;5032295;28;20036;-71
2022/05/14 06:21:51;;;;;;;2.55;1.48;;;;;;;;;;5032267;28;20022;-71
2022/05/14 06:24:17;;;;;;;1.98;1.10;;;;;;;;;;5014613;28;20045;-71
2022/05/14 06:26:43;;;;;;;2.95;1.75;;;;;;;;;;5033199;23;20104;-69
2022/05/14 06:29:09;;;;;;;8.10;1.95;;;;;;;;;;5010193;28;20030;-69
2022/05/14 06:31:36;;;;;;;9.10;1.60;;;;;;;;;;5010832;28;20034;-69
2022/05/14 06:34:02;;;;;;;11.25;2.00;;;;;;;;;;5012425;28;20026;-69
2022/05/14 06:36:28;;;;;;;7.80;1.70;;;;;;;;;;5012198;28;20084;-69
2022/05/14 06:38:54;;;;;;;4.80;1.35;;;;;;;;;;5011873;28;20044;-70
2022/05/14 06:41:20;;;;;;;4.25;1.48;;;;;;;;;;5012098;28;20022;-69
2022/05/14 06:43:46;;;;;;;4.72;1.95;;;;;;;;;;5011283;28;20022;-69
2022/05/14 06:46:12;;;;;;;2.95;1.45;;;;;;;;;;5011916;28;20529;-69
2022/05/14 06:48:39;;;;;;;5.10;1.55;;;;;;;;;;5012002;28;20034;-70
2022/05/14 06:51:06;;;;;;;4.90;1.45;;;;;;;;;;5012216;28;20029;-70
2022/05/14 06:53:34;;;;;;;4.22;1.52;;;;;;;;;;5012145;28;20034;-69
2022/05/14 06:56:01;;;;;;;3.70;1.55;;;;;;;;;;5011898;28;20026;-70
2022/05/14 06:58:29;;;;;;;5.28;1.70;;;;;;;;;;5011516;28;20065;-70
2022/05/14 07:00:55;;;;;;;5.07;1.92;;;;;;;;;;5010518;28;20014;-69
2022/05/14 07:08:51;;;;;;;9.18;2.25;;;;;;;;;;5011437;28;20041;-70
2022/05/14 07:11:17;;;;;;;7.63;1.77;;;;;;;;;;5011699;28;20026;-70
2022/05/14 07:13:43;;;;;;;4.40;2.30;;;;;;;;;;5010223;28;20030;-70
2022/05/14 07:16:09;;;;;;;7.22;2.33;;;;;;;;;;5011547;28;20108;-69
2022/05/14 07:18:35;;;;;;;6.75;2.30;;;;;;;;;;5010386;28;20392;-70
2022/05/14 07:21:01;;;;;;;7.50;2.25;;;;;;;;;;5011989;28;20432;-70
2022/05/14 07:23:27;;;;;;;9.90;2.30;;;;;;;;;;5010340;28;20045;-71
2022/05/14 07:25:53;;;;;;;5.45;1.77;;;;;;;;;;5011631;28;20505;-70
2022/05/14 07:28:19;;;;;;;5.88;2.10;;;;;;;;;;5011477;28;20431;-70
2022/05/14 07:30:45;;;;;;;7.95;2.00;;;;;;;;;;5010181;28;20026;-70
2022/05/14 07:33:12;;;;;;;8.20;2.05;;;;;;;;;;5011550;28;20531;-72
2022/05/14 07:35:38;;;;;;;5.70;2.20;;;;;;;;;;5007486;28;20096;-70
2022/05/14 07:38:06;;;;;;;7.03;2.35;;;;;;;;;;4991365;28;20477;-69
2022/05/14 07:40:34;;;;;;;7.00;2.67;;;;;;;;;;4992310;28;20465;-70
2022/05/14 07:43:02;;;;;;;6.90;2.35;;;;;;;;;;4992217;28;20392;-70
2022/05/14 07:45:42;;;;;;;5.72;2.15;;;;;;;;;;4991757;28;20029;-69
2022/05/14 07:48:12;;;;;;;6.57;2.53;;;;;;;;;;4991745;28;20092;-70
2022/05/14 07:50:39;;;;;;;6.20;2.25;;;;;;;;;;4991751;28;20030;-70
2022/05/14 07:53:06;;;;;;;5.57;2.00;;;;;;;;;;4995545;28;20029;-71
2022/05/14 07:55:33;;;;;;;6.28;2.40;;;;;;;;;;5013061;28;20040;-69
2022/05/14 07:57:59;;;;;;;4.90;1.83;;;;;;;;;;5014801;28;20095;-69
2022/05/14 08:00:25;;;;;;;6.47;2.88;;;;;;;;;;5015214;28;20029;-72
2022/05/14 08:02:51;;;;;;;6.72;2.80;;;;;;;;;;5015171;28;20021;-72
2022/05/14 08:05:21;;;;;;;8.73;2.47;;;;;;;;;;5015008;28;20029;-71
2022/05/14 08:07:47;;;;;;;8.27;2.83;;;;;;;;;;5014887;28;20022;-71
2022/05/14 08:10:16;;;;;;;8.77;2.65;;;;;;;;;;5014883;28;20034;-72
2022/05/14 08:12:44;;;;;;;9.27;2.63;;;;;;;;;;5014670;28;20053;-71
2022/05/14 08:15:11;;;;;;;4.90;2.58;;;;;;;;;;5014621;28;20033;-71
2022/05/14 08:17:37;;;;;;;6.15;2.72;;;;;;;;;;5014465;28;20026;-72
2022/05/14 08:20:04;;;;;;;5.78;2.45;;;;;;;;;;5013580;28;20068;-73
2022/05/14 08:25:14;;;;;;;8.45;2.70;;;;;;;;;;5014303;28;20122;-71
2022/05/14 08:27:47;;;;;;;8.45;2.38;;;;;;;;;;5014392;28;20061;-73
2022/05/14 08:30:14;;;;;;;6.43;2.63;;;;;;;;;;5013076;28;20403;-72
2022/05/14 08:32:40;;;;;;;4.10;2.00;;;;;;;;;;5014346;28;20468;-72
2022/05/14 08:35:06;;;;;;;9.05;2.35;;;;;;;;;;5014665;28;20102;-71
2022/05/14 08:37:32;;;;;;;7.43;2.00;;;;;;;;;;5013821;28;20033;-71
2022/05/14 08:39:58;;;;;;;6.53;2.50;;;;;;;;;;5014101;28;20026;-70
2022/05/14 08:42:24;;;;;;;4.22;1.95;;;;;;;;;;5012938;28;20598;-71
2022/05/14 08:44:51;;;;;;;5.85;2.10;;;;;;;;;;5014184;28;20033;-74
2022/05/14 08:47:44;;;;;;;5.18;2.13;;;;;;;;;;5013712;28;20026;-72
2022/05/14 08:50:11;;;;;;;8.98;2.33;;;;;;;;;;5012870;28;20038;-70
2022/05/14 08:52:37;;;;;;;5.40;2.97;;;;;;;;;;5013827;28;20396;-70
2022/05/14 08:55:05;;;;;;;6.53;2.65;;;;;;;;;;5012319;28;20033;-71
2022/05/14 08:57:46;;;;;;;6.10;2.33;;;;;;;;;;5013743;28;20206;-70
2022/05/14 09:00:13;;;;;;;6.45;2.90;;;;;;;;;;5012727;28;20036;-72
2022/05/14 09:02:42;;;;;;;6.63;2.85;;;;;;;;;;5010445;28;20030;-71
2022/05/14 09:05:10;;;;;;;7.93;3.28;;;;;;;;;;5011639;28;20029;-71
2022/05/14 09:07:36;;;;;;;6.25;3.38;;;;;;;;;;5011236;28;20100;-72
2022/05/14 09:10:04;;;;;;;13.27;3.30;;;;;;;;;;5011687;28;20026;-72
2022/05/14 09:12:32;;;;;;;5.38;3.20;;;;;;;;;;5012828;28;20120;-72
2022/05/14 09:15:00;;;;;;;6.95;3.42;;;;;;;;;;5012595;28;20025;-71
2022/05/14 09:17:29;;;;;;;11.90;3.72;;;;;;;;;;5013082;28;20491;-73
2022/05/14 09:19:55;;;;;;;7.88;3.50;;;;;;;;;;5011954;28;20026;-72
2022/05/14 09:22:33;;;;;;;13.32;3.63;;;;;;;;;;5007429;28;20067;-73
2022/05/14 09:24:59;;;;;;;8.70;3.95;;;;;;;;;;4993950;28;20023;-72
2022/05/14 09:27:43;;;;;;;13.60;4.00;;;;;;;;;;4999204;28;20030;-71
2022/05/14 09:30:12;;;;;;;4.97;2.85;;;;;;;;;;5013458;28;20029;-71
2022/05/14 09:32:42;;;;;;;5.20;3.05;;;;;;;;;;5013154;28;20107;-71
2022/05/14 09:35:14;;;;;;;11.25;3.95;;;;;;;;;;5013407;28;20488;-72
2022/05/14 09:37:41;;;;;;;11.27;2.80;;;;;;;;;;5011719;28;20112;-72
2022/05/14 09:40:28;;;;;;;11.88;3.75;;;;;;;;;;5012487;28;20065;-70
2022/05/14 09:43:08;;;;;;;8.63;3.88;;;;;;;;;;4992919;28;20542;-73
2022/05/14 09:45:36;;;;;;;9.95;4.13;;;;;;;;;;5007937;28;20025;-72
2022/05/14 09:48:19;;;;;;;6.80;3.80;;;;;;;;;;5012726;28;20080;-72
2022/05/14 09:50:49;;;;;;;13.57;5.00;;;;;;;;;;5012660;28;20018;-71
2022/05/14 09:53:25;;;;;;;7.22;3.70;;;;;;;;;;5012604;28;20052;-72
2022/05/14 09:55:59;;;;;;;6.75;3.53;;;27.90;29.90;;;;;;5012721;28;20469;-72
2022/05/14 09:58:32;;;;;;;10.43;3.95;;;27.50;31.00;;;;;;5012153;28;20075;-72
2022/05/14 10:01:10;;;;;;;10.07;5.40;;;27.40;32.40;;;;;;5012504;28;20025;-71
2022/05/14 10:03:59;;;;;;;10.18;3.40;;;27.30;31.70;;;;;;4996514;28;20081;-72
2022/05/14 10:06:55;;;;;;;8.77;4.65;;;27.00;32.80;;;;;;4992712;28;20018;-72
2022/05/14 10:09:32;;;;;;;11.63;3.88;;;26.90;33.40;;;;;;4992592;28;20648;-71
2022/05/14 10:12:26;;;;;;;9.55;3.92;;;26.80;33.10;;;;;;5006280;28;20025;-71
2022/05/14 10:14:57;;;;;;;12.73;4.53;;;26.70;33.20;;;;;;5004381;28;20033;-72
2022/05/14 10:17:29;;;;;;;10.32;5.18;;;26.50;33.10;;;;;;5007508;28;20023;-71
2022/05/14 10:20:17;;;;;;;10.13;4.25;;;26.40;33.30;;;;;;5008362;28;20093;-71
2022/05/14 10:28:37;;;;;;;9.93;3.45;;;25.90;33.90;;;;;;4993290;28;20056;-72
2022/05/14 10:31:36;;;;;;;7.97;4.30;;;25.80;34.00;;;;;;4993085;28;20034;-71
2022/05/14 10:34:10;;;;;;;9.15;3.85;;;25.80;35.10;;;;;;4998421;28;20061;-70
2022/05/14 10:36:58;;;;;;;9.75;3.80;;;25.70;33.90;;;;;;4996948;28;20381;-70
2022/05/14 10:39:46;;;;;;;10.65;3.60;;;25.80;33.90;;;;;;4996479;28;20172;-71
2022/05/14 10:42:34;;;;;;;10.43;3.03;;;25.70;34.20;;;;;;5011803;28;20041;-71
2022/05/14 10:45:22;;;;;;;10.60;3.90;;;25.60;34.80;;;;;;5011958;28;20101;-70
2022/05/14 10:48:00;;;;;;;11.05;3.78;;;25.60;34.10;;;;;;5010220;28;20060;-71
2022/05/14 10:50:29;;;;;;;10.50;3.92;;;25.20;34.90;;;;;;5010449;28;20710;-72
2022/05/14 10:52:55;;;;;;;10.38;3.30;;;24.90;35.00;;;;;;5011528;28;20026;-71
2022/05/14 10:55:31;;;;;;;7.90;3.40;;;24.80;35.40;;;;;;5011496;28;20495;-70
2022/05/14 10:58:04;;;;;;;14.18;3.85;;;24.50;34.90;;;;;;5011354;28;20128;-70
2022/05/14 11:00:30;;;;;;;9.38;3.42;;;24.20;35.80;;;;;;5012087;28;20022;-71
2022/05/14 11:03:00;;;;;;;11.02;3.17;;;24.00;36.00;;;;;;5010563;28;20392;-68
2022/05/14 11:05:49;;;;;;;8.70;2.92;;;24.00;37.00;;;;;;5010116;28;20502;-71
2022/05/14 11:08:28;;;;;;;9.73;3.50;;;24.00;36.30;;;;;;5011572;28;20384;-71
2022/05/14 11:11:17;;;;;;;9.43;3.30;;;24.00;36.60;;;;;;5010232;28;20030;-71
2022/05/14 11:14:01;;;;;;;12.13;3.55;;;24.10;36.70;;;;;;5011085;28;20108;-70
2022/05/14 11:16:51;;;;;;;7.70;3.38;;;24.30;35.50;;;;;;5011431;28;20030;-69
2022/05/14 11:19:34;;;;;;;10.73;3.08;;;24.20;36.40;;;;;;5011245;28;20026;-70
2022/05/14 11:22:01;;;;;;;8.30;3.08;;;24.20;35.90;;;;;;5009184;28;20049;-71
2022/05/14 11:24:45;;;;;;;11.07;3.60;;;24.30;36.10;;;;;;5011185;28;20041;-71
2022/05/14 11:27:14;;;;;;;11.32;3.97;;;24.20;36.20;;;;;;5005629;28;20046;-70
2022/05/14 11:29:52;;;;;;;7.72;3.53;;;24.20;35.80;;;;;;5011885;28;20018;-69
2022/05/14 11:32:21;;;;;;;7.57;3.22;;;24.20;36.30;;;;;;4996148;28;20727;-71
2022/05/14 11:34:59;;;;;;;8.95;3.10;;;24.10;35.50;;;;;;4995893;28;20031;-71
2022/05/14 11:37:34;;;;;;;9.15;3.22;;;24.20;36.20;;;;;;4996328;28;20118;-71
2022/05/14 11:40:24;;;;;;;8.27;2.72;;;24.20;36.40;;;;;;5009111;28;20021;-72
2022/05/14 11:43:20;;;;;;;7.78;2.97;;;24.30;36.60;;;;;;5015934;28;20026;-72
2022/05/14 11:45:55;;;;;;;6.97;2.65;;;24.30;36.50;;;;;;5012896;28;20105;-70
2022/05/14 11:48:29;;;;;;;10.70;2.63;;;24.10;36.40;;;;;;5015603;28;20018;-72
2022/05/14 11:51:26;;;;;;;9.23;2.38;;;24.20;35.80;;;;;;5016172;28;20099;-72
2022/05/14 11:54:18;;;;;;;10.82;2.95;;;24.30;36.90;;;;;;5016943;28;20026;-72
2022/05/14 11:56:52;;;;;;;6.47;2.75;;;24.10;36.80;;;;;;5016849;28;20113;-71
2022/05/14 11:59:32;;;;;;;10.50;2.33;;;24.00;36.90;;;;;;5016214;28;20076;-72
2022/05/14 12:02:01;;;;;;;7.97;2.35;;;24.00;36.90;;;;;;5010666;28;20027;-70
2022/05/14 12:04:31;;;;;;;7.82;2.55;;;24.00;36.20;;;;;;4997861;28;20065;-72
2022/05/14 12:07:11;;;;;;;10.57;2.78;;;24.00;35.50;;;;;;5003678;28;20068;-70
2022/05/14 12:09:39;;;;;;;8.25;3.30;;;24.00;36.60;;;;;;5002340;28;20023;-71
2022/05/14 12:12:17;;;;;;;8.15;2.33;;;24.00;35.60;;;;;;4998622;28;20049;-72
2022/05/14 12:14:44;;;;;;;7.70;2.45;;;24.00;35.70;;;;;;5005434;28;20093;-71
2022/05/14 12:17:16;;;;;;;8.70;3.03;;;24.00;35.40;;;;;;5015484;28;20037;-71
2022/05/14 12:19:44;;;;;;;8.80;2.90;;;23.90;36.10;;;;;;5009957;28;20023;-71
2022/05/14 12:22:15;;;;;;;5.40;2.00;;;23.90;36.60;;;;;;4997319;28;20481;-71
2022/05/14 12:27:57;;;;;;;8.60;2.40;;;24.00;36.10;;;;;;5030818;28;20045;-72
2022/05/14 12:33:18;;;;;;;10.80;2.95;;;23.80;36.10;;;;;;5034524;28;20025;-71
2022/05/14 12:35:55;;;;;;;8.50;2.63;;;23.70;36.70;;;;;;5031249;28;20400;-72
2022/05/14 12:38:30;;;;;;;9.60;2.67;;;23.40;37.20;;;;;;5009906;28;20137;-73
2022/05/14 12:40:56;;;;;;;7.55;2.55;;;23.40;37.20;;;;;;5014280;28;20392;-72
2022/05/14 12:43:23;;;;;;;9.77;2.65;;;23.40;37.40;;;;;;5012696;28;20022;-72
2022/05/14 12:46:06;;;;;;;7.82;2.45;;;23.60;37.60;;;;;;5014679;28;20026;-71
2022/05/14 12:48:41;;;;;;;9.20;2.50;;;23.60;37.50;;;;;;5014207;28;20100;-72
2022/05/14 12:51:08;;;;;;;8.77;2.53;;;23.70;37.40;;;;;;5013499;28;20025;-70
2022/05/14 12:53:42;;;;;;;7.78;2.45;;;24.00;37.80;;;;;;5013262;28;20028;-71
2022/05/14 12:56:09;;;;;;;10.52;2.55;;;24.10;36.40;;;;;;5014040;28;20030;-70
2022/05/14 12:58:36;;;;;;;12.07;3.25;;;23.90;36.20;;;;;;5014120;28;20026;-72
2022/05/14 13:01:04;;;;;;;8.38;2.08;;;23.70;35.90;;;;;;5012839;28;20505;-71
2022/05/14 13:03:30;;;;;;;7.93;2.78;;;23.70;36.40;;;;;;5012897;28;20088;-71
2022/05/14 13:06:01;;;;;;;6.43;2.53;;;23.90;36.50;;;;;;5006224;28;20026;-72
2022/05/14 13:08:29;;;;;;;7.80;3.35;;;23.60;36.30;;;;;;4994503;28;20030;-71
2022/05/14 13:11:04;;;;;;;7.72;2.20;;;23.20;37.60;;;;;;4994409;28;20110;-73
2022/05/14 13:13:38;;;;;;;8.48;2.58;;;23.20;37.10;;;;;;4994118;28;20022;-71
2022/05/14 13:16:27;;;;;;;8.50;2.72;;;23.10;38.70;;;;;;4994101;28;20077;-72
2022/05/14 13:18:54;;;;;;;13.27;2.72;;;23.10;37.60;;;;;;4994019;28;20030;-71
2022/05/14 13:21:23;;;;;;;6.53;2.35;;;23.30;37.10;;;;;;5001613;28;20026;-71
2022/05/14 13:24:25;;;;;;;6.03;2.58;;;23.50;37.10;;;;;;5012456;28;20097;-73
2022/05/14 13:26:53;;;;;;;8.48;2.53;;;23.40;37.10;;;;;;5012841;28;20508;-72
2022/05/14 13:29:24;;;;;;;11.82;2.40;;;23.40;37.10;;;;;;5013303;28;20488;-71
2022/05/14 13:31:51;;;;;;;;;;;23.50;37.20;;;;;;5013809;28;20053;-71
2022/05/14 13:37:28;;;;;;;5.20;1.88;;;23.40;34.80;;;;;;5012171;28;20065;-71
2022/05/14 13:39:56;;;;;;;5.07;2.35;;;23.00;35.70;;;;;;4998814;28;20030;-71
2022/05/14 13:42:32;;;;;;;5.15;2.38;;;22.90;37.30;;;;;;4991721;28;20021;-70
2022/05/14 13:45:05;;;;;;;6.38;2.42;;;23.00;37.20;;;;;;4991787;28;20022;-71
2022/05/14 13:47:32;;;;;;;6.30;2.75;;;23.20;36.70;;;;;;5007105;28;20058;-71
2022/05/14 13:50:00;;;;;;;7.00;2.50;;;23.10;35.90;;;;;;5013028;28;20054;-71
2022/05/14 13:52:29;;;;;;;7.07;2.42;;;22.90;36.90;;;;;;5012727;28;20037;-71
2022/05/14 13:55:08;;;;;;;8.95;2.78;;;22.90;37.60;;;;;;5012985;28;20029;-72
2022/05/14 13:57:35;;;;;;;6.95;2.13;;;23.00;37.90;;;;;;5012565;28;20036;-72
2022/05/14 14:00:06;;;;;;;9.90;3.08;;;23.00;37.30;;;;;;5011721;28;20030;-73
2022/05/14 14:02:32;;;;;;;13.07;3.42;;;23.20;36.50;;;;;;5013010;28;20033;-72
2022/05/14 14:05:07;;;;;;;13.93;2.78;;;23.30;36.10;;;;;;5012888;28;20510;-72
2022/05/14 14:07:35;;;;;;;6.90;2.63;;;23.10;36.70;;;;;;5012567;28;20029;-70
2022/05/14 14:10:18;;;;;;;6.10;2.72;;;23.00;36.50;;;;;;5012842;28;20072;-71
2022/05/14 14:12:44;;;;;;;6.60;2.53;;;22.90;37.60;;;;;;5012903;28;20084;-72
2022/05/14 14:15:15;;;;;;;12.82;2.92;;;23.00;37.10;;;;;;5012718;28;20304;-72
2022/05/14 14:17:42;;;;;;;10.07;2.72;;;22.90;37.20;;;;;;5012691;28;20396;-72
2022/05/14 14:20:08;;;;;;;6.00;2.30;;;23.00;36.80;;;;;;5012718;28;20026;-72
2022/05/14 14:22:33;;;;;;;6.70;2.28;;;22.90;36.60;;;;;;5012667;28;20026;-71
2022/05/14 14:25:00;;;;;;;6.25;2.50;;;22.60;37.10;;;;;;5012680;28;20546;-72
2022/05/14 14:27:26;;;;;;;6.93;2.72;;;22.80;37.20;;;;;;5012181;28;20463;-72
2022/05/14 14:29:57;;;;;;;7.05;2.47;;;22.90;37.60;;;;;;5012260;28;20057;-72
2022/05/14 14:32:23;;;;;;;10.35;2.38;;;22.80;36.10;;;;;;5012942;28;20029;-71
2022/05/14 14:34:49;;;;;;;4.82;2.30;;;22.90;36.70;;;;;;5012692;28;20033;-71
2022/05/14 14:37:14;;;;;;;13.40;2.85;;;22.90;37.20;;;;;;5012232;28;20506;-71
2022/05/14 14:39:40;;;;;;;6.80;2.40;;;23.00;36.40;;;;;;5012690;28;20030;-71
2022/05/14 14:42:06;;;;;;;7.20;2.88;;;23.10;36.60;;;;;;5010893;28;20026;-71
2022/05/14 14:44:31;;;;;;;5.53;2.83;;;23.00;36.70;;;;;;5012259;28;20021;-70